Archiv-/Tagesdaten

--Timestamp---	Temp	Chill	HIndex	Humid	Dewpt	Wind	HiWind	WindDir	Rain	Barom	Solar	ET	UV
--------------	----	-----	------	-----	-----	----	------	-------	----	-----	-----	--	--
20070920 00:05	6.4	6.4	6.4	88	4.6	0	3	135	0.00	1025.063	0	0.000	0
20070920 00:10	6.4	6.4	6.4	88	4.5	0	3	135	0.00	1025.164	0	0.000	0
20070920 00:15	6.3	6.3	6.3	88	4.5	0	2	135	0.00	1025.130	0	0.000	0
20070920 00:20	6.2	6.2	6.2	88	4.4	0	2	135	0.00	1025.130	0	0.000	0
20070920 00:25	6.2	6.2	6.2	88	4.3	0	0	135	0.00	1025.130	0	0.000	0
20070920 00:30	6.1	6.1	6.1	89	4.4	0	2	135	0.00	1025.063	0	0.000	0
20070920 00:35	6.1	6.1	6.1	88	4.2	0	0	135	0.00	1025.029	0	0.000	0
20070920 00:40	6.0	6.0	6.0	88	4.2	0	0	135	0.00	1024.995	0	0.000	0
20070920 00:45	5.9	5.9	5.9	89	4.3	0	2	135	0.00	1024.995	0	0.000	0
20070920 00:50	5.9	5.9	5.9	89	4.2	0	2	135	0.00	1025.063	0	0.000	0
20070920 00:55	5.9	5.9	5.9	89	4.2	0	3	135	0.00	1025.164	0	0.000	0
20070920 01:00	5.8	5.8	5.8	89	4.2	0	2	135	0.00	1025.198	0	0.000	0
20070920 01:05	5.8	5.8	5.8	89	4.2	0	3	135	0.00	1025.029	0	0.000	0
20070920 01:10	5.8	5.8	5.8	89	4.1	0	2	135	0.00	1025.097	0	0.000	0
20070920 01:15	5.7	5.7	5.7	89	4.1	0	2	135	0.00	1025.063	0	0.000	0
20070920 01:20	5.7	5.7	5.7	89	4.0	0	2	135	0.00	1025.097	0	0.000	0
20070920 01:25	5.7	5.7	5.7	89	4.0	0	3	135	0.00	1025.130	0	0.000	0
20070920 01:30	5.7	5.7	5.7	89	4.0	0	2	135	0.00	1025.130	0	0.000	0
20070920 01:35	5.6	5.6	5.6	89	3.9	0	2	135	0.00	1025.130	0	0.000	0
20070920 01:40	5.6	5.6	5.6	89	3.9	0	2	135	0.00	1025.164	0	0.000	0
20070920 01:45	5.5	5.5	5.5	89	3.8	0	3	135	0.00	1025.198	0	0.000	0
20070920 01:50	5.5	5.5	5.5	89	3.8	0	2	135	0.00	1025.198	0	0.000	0
20070920 01:55	5.4	5.4	5.4	89	3.8	0	3	135	0.00	1025.164	0	0.000	0
20070920 02:00	5.4	5.4	5.4	89	3.8	0	3	135	0.00	1025.063	0	0.000	0
20070920 02:05	5.3	5.3	5.3	89	3.7	0	2	180	0.00	1024.859	0	0.000	0
20070920 02:10	5.3	5.3	5.3	89	3.7	0	3	180	0.00	1024.859	0	0.000	0
20070920 02:15	5.3	5.3	5.3	89	3.6	0	3	180	0.00	1024.859	0	0.000	0
20070920 02:20	5.3	5.3	5.3	89	3.6	0	5	180	0.00	1024.859	0	0.000	0
20070920 02:25	5.2	5.2	5.2	89	3.5	0	6	180	0.00	1025.029	0	0.000	0
20070920 02:30	5.2	5.2	5.2	89	3.5	0	3	180	0.00	1025.029	0	0.000	0
20070920 02:35	5.2	5.2	5.2	89	3.5	0	2	180	0.00	1025.029	0	0.000	0
20070920 02:40	5.2	5.2	5.2	89	3.5	0	2	180	0.00	1025.029	0	0.000	0
20070920 02:45	5.2	5.2	5.2	89	3.5	2	5	180	0.00	1024.961	0	0.000	0
20070920 02:50	5.1	5.1	5.1	89	3.4	0	3	180	0.00	1024.995	0	0.000	0
20070920 02:55	5.1	5.1	5.1	89	3.4	2	5	180	0.00	1024.961	0	0.000	0
20070920 03:00	5.1	5.1	5.1	89	3.4	2	6	180	0.00	1024.961	0	0.000	0
20070920 03:05	5.1	5.1	5.1	89	3.4	0	2	180	0.00	1025.130	0	0.000	0
20070920 03:10	5.1	5.1	5.1	89	3.4	0	5	180	0.00	1025.097	0	0.000	0
20070920 03:15	5.0	5.0	5.0	89	3.3	0	3	180	0.00	1025.130	0	0.000	0
20070920 03:20	4.9	4.9	4.9	90	3.4	2	5	180	0.00	1025.198	0	0.000	0
20070920 03:25	4.9	4.9	4.9	90	3.4	0	3	180	0.00	1025.232	0	0.000	0
20070920 03:30	4.9	4.9	4.9	89	3.2	0	2	180	0.00	1025.300	0	0.000	0
20070920 03:35	4.9	4.9	4.9	90	3.4	0	0	180	0.00	1025.300	0	0.000	0
20070920 03:40	4.9	4.9	4.9	90	3.4	0	2	180	0.00	1025.300	0	0.000	0
20070920 03:45	5.0	5.0	5.0	95	4.3	0	2	180	0.00	1025.334	0	0.000	0
20070920 03:50	5.1	5.1	5.1	90	3.6	0	2	180	0.00	1025.232	0	0.000	0
20070920 03:55	5.3	5.3	5.3	90	3.8	0	3	180	0.00	1025.232	0	0.000	0
20070920 04:00	5.4	5.4	5.4	89	3.7	0	2	180	0.00	1025.164	0	0.000	0
20070920 04:05	5.4	5.4	5.4	89	3.8	0	3	180	0.00	1025.198	0	0.000	0
20070920 04:10	5.5	5.5	5.5	89	3.8	0	2	180	0.00	1025.130	0	0.000	0
20070920 04:15	5.6	5.6	5.6	89	3.9	0	3	180	0.00	1025.029	0	0.000	0
20070920 04:20	5.6	5.6	5.6	89	3.9	2	6	180	0.00	1025.063	0	0.000	0
20070920 04:25	5.7	5.7	5.7	90	4.2	2	6	180	0.00	1024.961	0	0.000	0
20070920 04:30	5.7	5.7	5.7	89	4.1	2	8	180	0.00	1024.995	0	0.000	0
20070920 04:35	5.8	5.8	5.8	89	4.1	0	5	202	0.00	1024.893	0	0.000	0
20070920 04:40	5.8	5.8	5.8	89	4.2	2	8	202	0.00	1024.859	0	0.000	0
20070920 04:45	5.9	5.9	5.9	89	4.2	2	6	202	0.00	1024.826	0	0.000	0
20070920 04:50	5.9	5.9	5.9	89	4.2	3	8	202	0.00	1024.927	0	0.000	0
20070920 04:55	5.8	5.8	5.8	89	4.2	0	3	202	0.00	1024.893	0	0.000	0
20070920 05:00	5.7	5.7	5.7	89	4.1	2	5	202	0.00	1025.063	0	0.000	0
20070920 05:05	5.7	5.7	5.7	89	4.0	0	6	202	0.00	1025.164	0	0.000	0
20070920 05:10	5.6	5.6	5.6	89	3.9	0	3	202	0.00	1025.130	0	0.000	0
20070920 05:15	5.4	5.4	5.4	89	3.8	0	3	202	0.00	1025.130	0	0.000	0
20070920 05:20	5.3	5.3	5.3	89	3.7	0	3	202	0.00	1025.097	0	0.000	0
20070920 05:25	5.3	5.3	5.3	89	3.6	0	2	202	0.00	1025.097	0	0.000	0
20070920 05:30	5.2	5.2	5.2	89	3.5	0	3	202	0.00	1025.198	0	0.000	0
20070920 05:35	5.1	5.1	5.1	89	3.4	0	2	202	0.00	1025.232	0	0.000	0
20070920 05:40	5.1	5.1	5.1	89	3.4	0	3	202	0.00	1025.198	0	0.000	0
20070920 05:45	5.1	5.1	5.1	90	3.6	0	2	202	0.00	1025.130	0	0.000	0
20070920 05:50	5.0	5.0	5.0	90	3.5	0	3	202	0.00	1025.130	0	0.000	0
20070920 05:55	4.9	4.9	4.9	90	3.4	0	3	180	0.00	1025.097	0	0.000	0
20070920 06:00	4.9	4.9	4.9	90	3.4	0	3	180	0.00	1025.164	0	0.000	0
20070920 06:05	4.8	4.8	4.8	90	3.3	0	5	180	0.00	1025.232	0	0.000	0
20070920 06:10	4.8	4.8	4.8	90	3.3	0	2	180	0.00	1025.300	0	0.000	0
20070920 06:15	4.8	4.8	4.8	90	3.3	0	2	180	0.00	1025.334	0	0.000	0
20070920 06:20	4.7	4.7	4.7	90	3.2	0	3	180	0.00	1025.401	0	0.000	0
20070920 06:25	4.7	4.7	4.7	90	3.2	0	2	180	0.00	1025.367	0	0.000	0
20070920 06:30	4.7	4.7	4.7	90	3.2	0	2	180	0.00	1025.401	0	0.000	0
20070920 06:35	4.6	4.6	4.6	90	3.1	0	2	180	0.00	1025.401	0	0.000	0
20070920 06:40	4.6	4.6	4.6	90	3.1	0	2	180	0.00	1025.401	0	0.000	0
20070920 06:45	4.6	4.6	4.6	90	3.1	0	2	180	0.00	1025.367	0	0.000	0
20070920 06:50	4.6	4.6	4.6	90	3.1	0	2	180	0.00	1025.300	0	0.000	0
20070920 06:55	4.5	4.5	4.5	90	3.0	0	3	180	0.00	1025.300	0	0.000	0
20070920 07:00	4.4	4.4	4.4	90	2.9	0	2	180	0.00	1025.334	0	0.000	0
20070920 07:05	4.4	4.4	4.4	90	2.9	0	3	180	0.00	1025.604	5	0.000	0
20070920 07:10	4.4	4.4	4.4	90	2.9	0	3	180	0.00	1025.604	8	0.000	0
20070920 07:15	4.4	4.4	4.4	90	2.9	0	3	180	0.00	1025.604	11	0.000	0
20070920 07:20	4.3	4.3	4.3	90	2.8	0	2	180	0.00	1025.604	13	0.000	0
20070920 07:25	4.3	4.3	4.3	90	2.8	0	3	180	0.00	1025.706	16	0.000	0
20070920 07:30	4.3	4.3	4.3	90	2.8	2	5	180	0.00	1025.740	19	0.000	0
20070920 07:35	4.4	4.4	4.4	90	2.9	2	5	180	0.00	1025.672	21	0.000	0
20070920 07:40	4.5	4.5	4.5	90	3.0	0	3	180	0.00	1025.672	23	0.000	0
20070920 07:45	4.6	4.6	4.6	90	3.1	0	3	180	0.00	1025.774	25	0.000	0
20070920 07:50	4.7	4.7	4.7	90	3.2	0	5	180	0.00	1025.808	27	0.000	0
20070920 07:55	4.7	4.7	4.7	89	3.1	0	2	180	0.00	1025.638	30	0.000	0
20070920 08:00	4.8	4.8	4.8	89	3.1	0	2	180	0.00	1025.638	32	0.000	0
20070920 08:05	4.9	4.9	4.9	89	3.2	0	5	180	0.00	1025.842	34	0.000	0
20070920 08:10	5.1	5.1	5.1	89	3.4	2	8	180	0.00	1025.774	36	0.000	0
20070920 08:15	5.2	5.2	5.2	89	3.6	2	5	180	0.00	1025.672	95	0.000	0
20070920 08:20	5.4	5.4	5.4	89	3.7	2	6	180	0.00	1025.706	55	0.000	0
20070920 08:25	5.6	5.6	5.6	89	3.9	2	6	180	0.00	1025.842	40	0.000	0
20070920 08:30	5.7	5.7	5.7	89	4.1	0	8	180	0.00	1025.842	40	0.000	0
20070920 08:35	5.9	5.9	5.9	88	4.1	2	5	180	0.00	1025.604	42	0.000	0
20070920 08:40	6.2	6.2	6.2	88	4.3	2	5	180	0.00	1025.638	42	0.000	0
20070920 08:45	6.4	6.4	6.4	88	4.6	0	5	180	0.00	1025.672	44	0.000	0
20070920 08:50	6.7	6.7	6.7	87	4.7	0	5	180	0.00	1025.808	44	0.000	0
20070920 08:55	6.9	6.9	6.9	86	4.8	2	5	180	0.00	1025.875	46	0.000	0
20070920 09:00	7.2	7.2	7.2	86	5.0	2	8	180	0.00	1025.740	46	0.020	0
20070920 09:05	7.3	7.3	7.3	86	5.1	2	6	180	0.00	1025.943	47	0.000	0
20070920 09:10	7.5	7.5	7.5	85	5.1	2	8	180	0.00	1025.943	47	0.000	0
20070920 09:15	7.7	7.7	7.7	85	5.3	2	6	180	0.00	1025.808	49	0.000	0
20070920 09:20	7.8	7.8	7.8	85	5.4	3	8	202	0.00	1025.909	49	0.000	0
20070920 09:25	8.0	8.0	8.0	84	5.5	2	8	202	0.00	1025.875	50	0.000	0
20070920 09:30	8.3	8.3	8.3	83	5.6	2	6	202	0.00	1025.909	51	0.000	0
20070920 09:35	8.4	8.4	8.4	84	5.9	2	6	202	0.00	1025.808	52	0.000	0
20070920 09:40	8.7	8.7	8.7	82	5.8	3	8	202	0.00	1025.638	53	0.000	0
20070920 09:45	8.9	8.9	8.9	81	5.8	2	8	202	0.00	1025.604	53	0.000	0
20070920 09:50	9.1	9.1	9.1	80	5.8	2	6	202	0.00	1025.638	53	0.000	0
20070920 09:55	9.3	9.3	9.3	81	6.2	0	3	202	0.00	1025.706	53	0.000	0
20070920 10:00	9.7	9.7	9.7	79	6.2	2	6	225	0.00	1025.774	54	0.020	0
20070920 10:05	9.9	9.9	9.9	78	6.3	2	6	270	0.00	1025.740	54	0.000	0
20070920 10:10	10.1	10.1	10.1	77	6.3	2	5	270	0.00	1025.774	54	0.000	0
20070920 10:15	10.2	10.2	10.2	75	5.9	2	6	270	0.00	1025.774	56	0.000	1
20070920 10:20	10.3	10.3	10.3	76	6.3	2	6	270	0.00	1025.638	57	0.000	1
20070920 10:25	10.5	10.5	10.5	76	6.4	3	8	270	0.00	1025.638	58	0.000	2
20070920 10:30	10.7	10.7	10.7	75	6.5	5	8	270	0.00	1025.672	59	0.000	2
20070920 10:35	10.8	10.8	10.8	74	6.4	2	6	292	0.00	1025.740	60	0.000	2
20070920 10:40	10.9	10.9	10.9	73	6.3	2	5	247	0.00	1025.740	62	0.000	2
20070920 10:45	11.1	11.1	11.1	74	6.6	2	5	247	0.00	1025.740	65	0.000	2
20070920 10:50	11.2	11.2	11.2	74	6.7	2	5	247	0.00	1025.740	68	0.000	2
20070920 10:55	11.3	11.3	11.3	75	7.0	2	5	247	0.00	1025.774	70	0.000	2
20070920 11:00	11.2	11.2	11.2	74	6.8	2	6	247	0.00	1025.740	73	0.020	2
20070920 11:05	11.3	11.3	11.3	75	7.1	2	5	270	0.00	1025.740	72	0.000	2
20070920 11:10	11.5	11.5	11.5	73	6.8	2	6	270	0.00	1025.774	72	0.000	2
20070920 11:15	11.7	11.7	11.7	73	7.0	0	5	270	0.00	1025.706	80	0.000	2
20070920 11:20	11.8	11.8	11.8	72	6.9	0	2	270	0.00	1025.740	554	0.000	2
20070920 11:25	11.9	11.9	11.9	72	7.1	0	3	270	0.00	1025.672	557	0.000	3
20070920 11:30	12.3	12.3	12.3	69	6.8	2	5	270	0.00	1025.469	566	0.000	3
20070920 11:35	12.7	12.7	12.7	68	6.9	0	5	247	0.00	1025.469	583	0.000	3
20070920 11:40	12.9	12.9	12.9	65	6.5	0	5	247	0.00	1025.401	592	0.000	4
20070920 11:45	13.2	13.2	13.2	67	7.2	2	6	270	0.00	1025.266	590	0.000	4
20070920 11:50	13.3	13.3	13.3	67	7.3	2	5	292	0.00	1025.097	586	0.000	4
20070920 11:55	13.3	13.3	13.3	65	6.9	0	5	292	0.00	1025.164	606	0.000	4
20070920 12:00	13.4	13.4	13.4	65	7.0	2	8	45	0.00	1025.097	598	0.180	4
20070920 12:05	13.6	13.6	13.6	64	6.9	0	2	292	0.00	1025.266	621	0.000	4
20070920 12:10	13.8	13.8	13.8	62	6.7	2	6	315	0.00	1025.130	622	0.000	4
20070920 12:15	14.1	14.1	14.1	61	6.7	3	8	292	0.00	1025.164	623	0.000	4
20070920 12:20	14.3	14.3	14.3	62	7.1	2	5	292	0.00	1025.063	642	0.000	4
20070920 12:25	14.3	14.3	14.3	58	6.2	2	5	292	0.00	1025.164	654	0.000	4
20070920 12:30	14.3	14.3	14.3	60	6.6	2	10	225	0.00	1025.097	645	0.000	4
20070920 12:35	14.4	14.4	14.4	60	6.7	2	10	157	0.00	1025.164	650	0.000	4
20070920 12:40	14.4	14.4	14.4	60	6.8	2	5	157	0.00	1025.164	641	0.000	4
20070920 12:45	14.6	14.6	14.6	62	7.4	2	6	0	0.00	1025.164	652	0.000	4
20070920 12:50	14.7	14.7	14.7	60	7.0	2	8	292	0.00	1025.164	381	0.000	4
20070920 12:55	14.6	14.6	14.6	59	6.7	2	6	0	0.00	1025.198	457	0.000	4
20070920 13:00	14.4	14.4	14.4	59	6.5	2	8	0	0.00	1025.198	647	0.240	4
20070920 13:05	14.5	14.5	14.5	61	7.1	3	8	22	0.00	1025.164	652	0.000	4
20070920 13:10	14.4	14.4	14.4	58	6.2	3	10	22	0.00	1025.063	654	0.000	4
20070920 13:15	14.5	14.5	14.5	57	6.1	2	8	202	0.00	1025.029	645	0.000	4
20070920 13:20	14.5	14.5	14.5	59	6.6	2	6	45	0.00	1024.961	635	0.000	4
20070920 13:25	14.6	14.6	14.6	55	5.7	3	8	45	0.00	1024.995	630	0.000	4
20070920 13:30	14.8	14.8	14.8	56	6.1	3	8	67	0.00	1024.927	636	0.000	4
20070920 13:35	15.0	15.0	15.0	58	6.8	2	6	292	0.00	1024.893	665	0.000	4
20070920 13:40	15.4	15.4	15.4	55	6.4	2	8	292	0.00	1024.724	656	0.000	4
20070920 13:45	15.6	15.6	15.6	55	6.5	3	8	22	0.00	1024.724	639	0.000	4
20070920 13:50	15.7	15.7	15.7	53	6.1	3	16	270	0.00	1024.690	650	0.000	4
20070920 13:55	15.9	15.9	15.9	55	6.9	2	10	292	0.00	1024.656	650	0.000	4
20070920 14:00	15.9	15.9	15.9	50	5.5	2	6	270	0.00	1024.656	639	0.280	4
20070920 14:05	15.9	15.9	15.9	51	5.8	3	10	292	0.00	1024.623	642	0.000	4
20070920 14:10	15.9	15.9	15.9	52	6.1	3	16	292	0.00	1024.589	628	0.000	4
20070920 14:15	16.1	16.1	16.1	52	6.2	3	8	270	0.00	1024.623	628	0.000	4
20070920 14:20	16.0	16.0	16.0	53	6.4	2	10	292	0.00	1024.623	625	0.000	4
20070920 14:25	16.3	16.3	16.3	51	6.1	3	8	247	0.00	1024.589	604	0.000	4
20070920 14:30	16.3	16.3	16.3	50	5.9	3	8	22	0.00	1024.623	592	0.000	4
20070920 14:35	15.9	15.9	15.9	51	5.8	3	8	45	0.00	1024.589	564	0.000	4
20070920 14:40	15.8	15.8	15.8	50	5.4	5	8	22	0.00	1024.555	587	0.000	4
20070920 14:45	15.8	15.8	15.8	54	6.5	6	13	22	0.00	1024.690	581	0.000	3
20070920 14:50	15.6	15.6	15.6	57	7.1	3	11	22	0.00	1024.656	572	0.000	3
20070920 14:55	15.7	15.7	15.7	54	6.4	3	8	45	0.00	1024.555	457	0.000	3
20070920 15:00	15.8	15.8	15.8	50	5.4	2	5	22	0.00	1024.453	375	0.260	3
20070920 15:05	15.8	15.8	15.8	50	5.4	2	6	22	0.00	1024.385	520	0.000	3
20070920 15:10	15.6	15.6	15.6	51	5.5	2	6	22	0.00	1024.250	499	0.000	3
20070920 15:15	15.6	15.6	15.6	50	5.2	0	5	315	0.00	1024.284	357	0.000	2
20070920 15:20	15.8	15.8	15.8	51	5.7	2	3	270	0.00	1024.216	515	0.000	3
20070920 15:25	16.2	16.2	16.2	50	5.7	0	5	270	0.00	1024.216	515	0.000	3
20070920 15:30	15.9	15.9	15.9	51	5.8	5	11	45	0.00	1024.216	471	0.000	2
20070920 15:35	15.7	15.7	15.7	53	6.2	0	3	22	0.00	1024.148	395	0.000	2
20070920 15:40	15.8	15.8	15.8	52	6.0	2	6	292	0.00	1024.216	109	0.000	2
20070920 15:45	15.9	15.9	15.9	49	5.2	2	5	22	0.00	1024.250	102	0.000	2
20070920 15:50	15.9	15.9	15.9	51	5.8	0	5	292	0.00	1024.182	93	0.000	2
20070920 15:55	15.9	15.9	15.9	50	5.5	2	5	0	0.00	1024.182	94	0.000	2
20070920 16:00	15.9	15.9	15.9	50	5.5	3	10	292	0.00	1024.148	93	0.140	2
20070920 16:05	15.8	15.8	15.8	49	5.1	3	8	22	0.00	1024.115	79	0.000	1
20070920 16:10	15.8	15.8	15.8	51	5.7	2	8	22	0.00	1024.148	72	0.000	1
20070920 16:15	15.7	15.7	15.7	51	5.6	3	6	0	0.00	1024.081	71	0.000	1
20070920 16:20	15.6	15.6	15.6	52	5.8	2	6	0	0.00	1024.115	69	0.000	1
20070920 16:25	15.6	15.6	15.6	50	5.2	0	8	22	0.00	1024.081	70	0.000	1
20070920 16:30	15.6	15.6	15.6	51	5.5	3	8	0	0.00	1024.081	70	0.000	1
20070920 16:35	15.7	15.7	15.7	49	5.0	2	6	292	0.00	1024.115	75	0.000	1
20070920 16:40	15.8	15.8	15.8	48	4.8	0	3	292	0.00	1023.979	74	0.000	1
20070920 16:45	15.8	15.8	15.8	49	5.1	0	3	0	0.00	1023.945	70	0.000	1
20070920 16:50	15.8	15.8	15.8	51	5.7	2	6	0	0.00	1023.844	67	0.000	1
20070920 16:55	15.8	15.8	15.8	51	5.7	2	5	292	0.00	1023.844	65	0.000	1
20070920 17:00	15.7	15.7	15.7	48	4.7	0	3	292	0.00	1023.878	68	0.040	1
20070920 17:05	15.7	15.7	15.7	48	4.7	0	3	292	0.00	1024.013	69	0.000	1
20070920 17:10	15.7	15.7	15.7	49	5.0	0	3	292	0.00	1023.979	68	0.000	1
20070920 17:15	15.7	15.7	15.7	49	5.0	2	5	22	0.00	1023.911	67	0.000	1
20070920 17:20	15.6	15.6	15.6	49	4.9	2	5	22	0.00	1023.979	60	0.000	1
20070920 17:25	15.5	15.5	15.5	51	5.4	0	2	67	0.00	1023.979	58	0.000	0
20070920 17:30	15.6	15.6	15.6	51	5.5	0	2	67	0.00	1024.047	56	0.000	0
20070920 17:35	15.6	15.6	15.6	51	5.5	0	2	45	0.00	1023.979	49	0.000	0
20070920 17:40	15.4	15.4	15.4	52	5.6	3	8	22	0.00	1023.979	46	0.000	0
20070920 17:45	15.3	15.3	15.3	54	6.0	3	8	45	0.00	1024.013	48	0.000	0
20070920 17:50	15.2	15.2	15.2	54	6.0	2	5	45	0.00	1024.013	57	0.000	0
20070920 17:55	15.2	15.2	15.2	53	5.7	2	3	67	0.00	1023.945	64	0.000	0
20070920 18:00	15.2	15.2	15.2	51	5.1	2	5	45	0.00	1023.979	44	0.040	0
20070920 18:05	15.1	15.1	15.1	52	5.3	0	3	45	0.00	1024.047	46	0.000	0
20070920 18:10	15.0	15.0	15.0	52	5.2	2	5	22	0.00	1024.115	74	0.000	0
20070920 18:15	15.0	15.0	15.0	53	5.5	0	2	22	0.00	1024.216	90	0.000	0
20070920 18:20	15.1	15.1	15.1	54	5.8	0	3	22	0.00	1024.216	72	0.000	0
20070920 18:25	15.0	15.0	15.0	55	6.0	2	5	22	0.00	1024.216	54	0.000	0
20070920 18:30	15.0	15.0	15.0	56	6.3	2	3	22	0.00	1024.182	37	0.000	0
20070920 18:35	14.8	14.8	14.8	57	6.3	0	3	22	0.00	1024.250	32	0.000	0
20070920 18:40	14.6	14.6	14.6	56	5.9	0	3	22	0.00	1024.318	33	0.000	0
20070920 18:45	14.5	14.5	14.5	58	6.3	0	3	22	0.00	1024.318	30	0.000	0
20070920 18:50	14.3	14.3	14.3	58	6.2	0	3	22	0.00	1024.284	26	0.000	0
20070920 18:55	14.2	14.2	14.2	60	6.6	0	0	22	0.00	1024.419	24	0.000	0
20070920 19:00	14.1	14.1	14.1	62	6.9	0	2	22	0.00	1024.521	19	0.020	0
20070920 19:05	13.9	13.9	13.9	63	7.0	0	2	22	0.00	1024.453	16	0.000	0
20070920 19:10	13.8	13.8	13.8	64	7.1	0	2	22	0.00	1024.419	11	0.000	0
20070920 19:15	13.7	13.7	13.7	66	7.4	0	0	22	0.00	1024.487	5	0.000	0
20070920 19:20	13.5	13.5	13.5	67	7.5	0	0	22	0.00	1024.589	0	0.000	0
20070920 19:25	13.3	13.3	13.3	70	7.9	0	0	22	0.00	1024.656	0	0.000	0
20070920 19:30	13.1	13.1	13.1	68	7.3	0	0	22	0.00	1024.690	0	0.000	0
20070920 19:35	12.9	12.9	12.9	67	7.0	0	0	22	0.00	1024.690	0	0.000	0
20070920 19:40	12.8	12.8	12.8	70	7.4	0	0	22	0.00	1024.826	0	0.000	0
20070920 19:45	12.6	12.6	12.6	70	7.2	0	0	22	0.00	1024.859	0	0.000	0
20070920 19:50	12.4	12.4	12.4	71	7.3	0	0	22	0.00	1024.995	0	0.000	0
20070920 19:55	12.2	12.2	12.2	70	6.9	0	0	22	0.00	1025.063	0	0.000	0
20070920 20:00	12.1	12.1	12.1	72	7.2	0	0	22	0.00	1025.029	0	0.000	0
20070920 20:05	11.9	11.9	11.9	71	6.8	0	2	22	0.00	1024.859	0	0.000	0
20070920 20:10	11.8	11.8	11.8	73	7.1	0	2	22	0.00	1024.859	0	0.000	0
20070920 20:15	11.7	11.7	11.7	74	7.2	0	3	22	0.00	1024.893	0	0.000	0
20070920 20:20	11.6	11.6	11.6	74	7.1	0	0	22	0.00	1024.893	0	0.000	0
20070920 20:25	11.4	11.4	11.4	73	6.8	0	2	22	0.00	1025.029	0	0.000	0
20070920 20:30	11.3	11.3	11.3	74	6.9	0	2	22	0.00	1025.164	0	0.000	0
20070920 20:35	11.2	11.2	11.2	75	6.9	0	0	22	0.00	1025.198	0	0.000	0
20070920 20:40	11.1	11.1	11.1	76	7.0	0	0	22	0.00	1025.232	0	0.000	0
20070920 20:45	10.9	10.9	10.9	77	7.0	0	0	22	0.00	1025.266	0	0.000	0
20070920 20:50	10.7	10.7	10.7	77	6.9	0	0	22	0.00	1025.266	0	0.000	0
20070920 20:55	10.6	10.6	10.6	78	6.9	0	0	22	0.00	1025.266	0	0.000	0
20070920 21:00	10.4	10.4	10.4	79	6.9	0	0	22	0.00	1025.198	0	0.020	0
20070920 21:05	10.2	10.2	10.2	79	6.7	0	0	22	0.00	1025.164	0	0.000	0
20070920 21:10	10.1	10.1	10.1	80	6.8	0	0	22	0.00	1025.164	0	0.000	0
20070920 21:15	10.0	10.0	10.0	80	6.7	0	0	22	0.00	1025.198	0	0.000	0
20070920 21:20	9.9	9.9	9.9	81	6.8	0	0	22	0.00	1025.266	0	0.000	0
20070920 21:25	9.8	9.8	9.8	81	6.7	0	0	22	0.00	1025.300	0	0.000	0
20070920 21:30	9.7	9.7	9.7	82	6.8	0	0	22	0.00	1025.300	0	0.000	0
20070920 21:35	9.6	9.6	9.6	82	6.7	0	0	22	0.00	1025.367	0	0.000	0
20070920 21:40	9.6	9.6	9.6	83	6.8	0	0	22	0.00	1025.334	0	0.000	0
20070920 21:45	9.4	9.4	9.4	83	6.7	0	2	67	0.00	1025.300	0	0.000	0
20070920 21:50	9.4	9.4	9.4	83	6.7	0	0	67	0.00	1025.300	0	0.000	0
20070920 21:55	9.3	9.3	9.3	83	6.6	0	2	135	0.00	1025.367	0	0.000	0
20070920 22:00	9.3	9.3	9.3	84	6.7	0	0	135	0.00	1025.300	0	0.000	0
20070920 22:05	9.2	9.2	9.2	84	6.6	0	2	135	0.00	1025.266	0	0.000	0
20070920 22:10	9.1	9.1	9.1	84	6.6	0	2	135	0.00	1025.334	0	0.000	0
20070920 22:15	9.0	9.0	9.0	84	6.4	0	2	135	0.00	1025.266	0	0.000	0
20070920 22:20	8.9	8.9	8.9	85	6.5	0	0	135	0.00	1025.300	0	0.000	0
20070920 22:25	8.8	8.8	8.8	84	6.2	0	0	135	0.00	1025.367	0	0.000	0
20070920 22:30	8.7	8.7	8.7	85	6.3	0	0	135	0.00	1025.435	0	0.000	0
20070920 22:35	8.6	8.6	8.6	85	6.2	0	2	135	0.00	1025.503	0	0.000	0
20070920 22:40	8.6	8.6	8.6	85	6.2	0	2	135	0.00	1025.503	0	0.000	0
20070920 22:45	8.6	8.6	8.6	85	6.2	0	2	135	0.00	1025.537	0	0.000	0
20070920 22:50	8.6	8.6	8.6	85	6.2	0	0	135	0.00	1025.503	0	0.000	0
20070920 22:55	8.6	8.6	8.6	85	6.2	0	0	135	0.00	1025.571	0	0.000	0
20070920 23:00	8.4	8.4	8.4	85	6.1	0	0	135	0.00	1025.638	0	0.000	0
20070920 23:05	8.3	8.3	8.3	85	5.9	0	0	135	0.00	1025.367	0	0.000	0
20070920 23:10	8.2	8.2	8.2	86	6.0	0	2	135	0.00	1025.300	0	0.000	0
20070920 23:15	8.2	8.2	8.2	86	6.0	0	2	135	0.00	1025.435	0	0.000	0
20070920 23:20	8.2	8.2	8.2	86	6.0	0	2	135	0.00	1025.537	0	0.000	0
20070920 23:25	8.2	8.2	8.2	86	6.0	0	2	135	0.00	1025.537	0	0.000	0
20070920 23:30	8.2	8.2	8.2	87	6.1	0	2	135	0.00	1025.638	0	0.000	0
20070920 23:35	8.2	8.2	8.2	87	6.1	0	2	135	0.00	1025.672	0	0.000	0
20070920 23:40	8.1	8.1	8.1	87	6.0	0	0	135	0.00	1025.706	0	0.000	0
20070920 23:45	8.0	8.0	8.0	87	6.0	0	2	135	0.00	1025.774	0	0.000	0
20070920 23:50	7.9	7.9	7.9	87	5.9	0	2	135	0.00	1025.808	0	0.000	0
20070920 23:55	7.8	7.8	7.8	87	5.8	0	0	135	0.00	1025.740	0	0.000	0
20070920 24:00	7.7	7.7	7.7	87	5.7	0	0	135	0.00	1025.740	0	0.000	0



Please note the license to use and transfer of this data:
http://creativecommons.org/licenses/by-nc-sa/3.0/deed.en

Bitte beachten sie die Lizenz zur Verwertung und Weitergabe der Daten:
http://creativecommons.org/licenses/by-nc-sa/3.0/deed.de

zurück zur Übersicht der Archivdaten (Monats und Tagesdaten)

Cookies helfen bei der Bereitstellung von Inhalten. Durch die Nutzung dieser Seiten erklärst du dich damit einverstanden, dass Cookies auf deinem Rechner gespeichert werden. Weitere Information